NZAA/AKL METAR and TAF weather

Enter ICAO airport designator
Station Type Date Time Source
NZAA METAR 2020/05/30 04:00 UTC NOAA

NZAA 300400Z AUTO 14008KT 9999 SCT024/// BKN032/// 17/13 Q1021 NOSIG


Station Type Date Time Source
NZAA Decoded METAR 2020/05/30 04:00 UTC NOAA

Auckland Airport, New Zealand (NZAA) 37-01S 174-48E 6M
May 30, 2020 - 12:00 AM EDT / 2020.05.30 0400 UTC
Wind: from the SE (140 degrees) at 9 MPH (8 KT):0
Visibility: greater than 7 mile(s):0
Sky conditions: mostly cloudy
Temperature: 62 F (17 C)
Dew Point: 55 F (13 C)
Relative Humidity: 77%
Pressure (altimeter): 30.15 in. Hg (1021 hPa)
ob: NZAA 300400Z AUTO 14008KT 9999 SCT024/// BKN032/// 17/13 Q1021 NOSIG
cycle: 4

Station Type Date Time Source
NZAA TAF 2020/05/30 01:50 UTC NOAA

TAF
AMD NZAA 300139Z 3001/3100 22005KT 9999 SCT030
TEMPO 3005/3007 BKN014
FM300700 11005KT 9999 -RA BKN013
TEMPO 3009/3013 6000 RADZ BKN010
FM302300 12015KT 9999 SCT014 BKN016

Example: see airport list